sensor_id;sensor_type;location;lat;lon;timestamp;pressure;altitude;pressure_sealevel;temperature;humidity
51299;BME280;37382;45.192;9.790;2023-02-02T05:04:13;101770.41;;;4.40;100.00
51299;BME280;37382;45.192;9.790;2023-02-02T05:06:41;101774.47;;;4.56;100.00
51299;BME280;37382;45.192;9.790;2023-02-02T05:09:16;101778.28;;;4.53;100.00
51299;BME280;37382;45.192;9.790;2023-02-02T05:11:44;101785.09;;;4.57;100.00
51299;BME280;37382;45.192;9.790;2023-02-02T05:14:15;101782.81;;;4.53;100.00
51299;BME280;37382;45.192;9.790;2023-02-02T05:16:45;101783.09;;;4.50;100.00
51299;BME280;37382;45.192;9.790;2023-02-02T05:19:12;101798.19;;;4.41;100.00
51299;BME280;37382;45.192;9.790;2023-02-02T05:21:43;101803.94;;;4.15;100.00
51299;BME280;37382;45.192;9.790;2023-02-02T05:24:11;101799.75;;;4.22;100.00
51299;BME280;37382;45.192;9.790;2023-02-02T05:26:38;101799.72;;;4.01;100.00
51299;BME280;37382;45.192;9.790;2023-02-02T05:29:06;101801.59;;;3.89;100.00
51299;BME280;37382;45.192;9.790;2023-02-02T05:31:35;101801.75;;;4.20;100.00
51299;BME280;37382;45.192;9.790;2023-02-02T05:34:03;101801.34;;;3.92;100.00
51299;BME280;37382;45.192;9.790;2023-02-02T05:36:36;101806.41;;;3.86;100.00
51299;BME280;37382;45.192;9.790;2023-02-02T05:39:04;101804.28;;;3.89;100.00
51299;BME280;37382;45.192;9.790;2023-02-02T05:41:32;101816.66;;;3.92;100.00
51299;BME280;37382;45.192;9.790;2023-02-02T05:43:59;101802.81;;;3.97;100.00
51299;BME280;37382;45.192;9.790;2023-02-02T05:46:27;101821.44;;;3.88;100.00
51299;BME280;37382;45.192;9.790;2023-02-02T05:48:54;101828.69;;;3.77;100.00
51299;BME280;37382;45.192;9.790;2023-02-02T05:51:28;101833.25;;;3.65;100.00
51299;BME280;37382;45.192;9.790;2023-02-02T05:53:57;101832.16;;;3.56;100.00
51299;BME280;37382;45.192;9.790;2023-02-02T05:56:27;101837.59;;;3.88;100.00
51299;BME280;37382;45.192;9.790;2023-02-02T05:58:54;101836.31;;;4.04;100.00
51299;BME280;37382;45.192;9.790;2023-02-02T06:01:22;101843.69;;;3.90;100.00
51299;BME280;37382;45.192;9.790;2023-02-02T06:03:49;101848.53;;;3.64;100.00
51299;BME280;37382;45.192;9.790;2023-02-02T06:06:16;101842.56;;;3.38;100.00
51299;BME280;37382;45.192;9.790;2023-02-02T06:08:44;101852.13;;;3.08;100.00
51299;BME280;37382;45.192;9.790;2023-02-02T06:11:13;101850.13;;;2.76;100.00
51299;BME280;37382;45.192;9.790;2023-02-02T06:13:42;101853.00;;;2.62;100.00
51299;BME280;37382;45.192;9.790;2023-02-02T06:16:13;101855.25;;;2.79;100.00
51299;BME280;37382;45.192;9.790;2023-02-02T06:18:40;101852.09;;;2.97;100.00
51299;BME280;37382;45.192;9.790;2023-02-02T06:21:08;101843.66;;;2.90;100.00
51299;BME280;37382;45.192;9.790;2023-02-02T06:23:36;101841.47;;;2.84;100.00
51299;BME280;37382;45.192;9.790;2023-02-02T06:26:03;101840.13;;;2.90;100.00
51299;BME280;37382;45.192;9.790;2023-02-02T06:28:31;101839.88;;;2.93;100.00
51299;BME280;37382;45.192;9.790;2023-02-02T06:31:03;101834.16;;;2.97;100.00
51299;BME280;37382;45.192;9.790;2023-02-02T06:33:31;101826.31;;;3.06;100.00
51299;BME280;37382;45.192;9.790;2023-02-02T06:36:03;101831.81;;;3.04;100.00
51299;BME280;37382;45.192;9.790;2023-02-02T06:38:31;101831.44;;;3.09;100.00
51299;BME280;37382;45.192;9.790;2023-02-02T06:40:59;101826.44;;;3.04;100.00
51299;BME280;37382;45.192;9.790;2023-02-02T06:43:28;101819.50;;;3.01;100.00
51299;BME280;37382;45.192;9.790;2023-02-02T06:45:56;101824.00;;;3.01;100.00
51299;BME280;37382;45.192;9.790;2023-02-02T06:48:25;101826.69;;;3.01;100.00
51299;BME280;37382;45.192;9.790;2023-02-02T06:50:57;101824.97;;;3.00;100.00
51299;BME280;37382;45.192;9.790;2023-02-02T06:53:26;101820.94;;;2.94;100.00
51299;BME280;37382;45.192;9.790;2023-02-02T06:56:00;101819.13;;;2.95;100.00
51299;BME280;37382;45.192;9.790;2023-02-02T06:58:30;101812.53;;;2.99;100.00
51299;BME280;37382;45.192;9.790;2023-02-02T07:01:05;101812.88;;;2.94;100.00
51299;BME280;37382;45.192;9.790;2023-02-02T07:03:34;101814.47;;;2.97;100.00
51299;BME280;37382;45.192;9.790;2023-02-02T07:06:17;101822.28;;;3.00;100.00
51299;BME280;37382;45.192;9.790;2023-02-02T07:08:46;101832.22;;;3.11;100.00
51299;BME280;37382;45.192;9.790;2023-02-02T07:11:30;101833.53;;;3.16;100.00
51299;BME280;37382;45.192;9.790;2023-02-02T07:14:02;101838.66;;;3.19;100.00
51299;BME280;37382;45.192;9.790;2023-02-02T07:16:30;101859.19;;;3.43;100.00
51299;BME280;37382;45.192;9.790;2023-02-02T07:18:58;101847.19;;;3.59;100.00
51299;BME280;37382;45.192;9.790;2023-02-02T07:21:26;101854.13;;;3.72;100.00
51299;BME280;37382;45.192;9.790;2023-02-02T07:24:02;101862.09;;;3.85;100.00
51299;BME280;37382;45.192;9.790;2023-02-02T07:26:33;101847.81;;;4.06;100.00
51299;BME280;37382;45.192;9.790;2023-02-02T07:29:01;101853.91;;;4.08;100.00
51299;BME280;37382;45.192;9.790;2023-02-02T07:31:29;101845.28;;;4.25;100.00
51299;BME280;37382;45.192;9.790;2023-02-02T07:33:56;101846.75;;;4.30;100.00
51299;BME280;37382;45.192;9.790;2023-02-02T07:36:24;101850.75;;;4.35;100.00
51299;BME280;37382;45.192;9.790;2023-02-02T07:38:52;101853.00;;;3.98;100.00
51299;BME280;37382;45.192;9.790;2023-02-02T07:41:21;101854.59;;;3.89;100.00
51299;BME280;37382;45.192;9.790;2023-02-02T07:43:49;101858.84;;;4.03;100.00
51299;BME280;37382;45.192;9.790;2023-02-02T07:46:18;101852.59;;;4.02;100.00
51299;BME280;37382;45.192;9.790;2023-02-02T07:48:45;101850.97;;;4.11;100.00
51299;BME280;37382;45.192;9.790;2023-02-02T07:51:15;101864.97;;;4.37;100.00
51299;BME280;37382;45.192;9.790;2023-02-02T07:53:46;101861.66;;;4.34;100.00
51299;BME280;37382;45.192;9.790;2023-02-02T07:56:18;101864.44;;;4.43;100.00
51299;BME280;37382;45.192;9.790;2023-02-02T07:58:46;101866.34;;;4.53;100.00
51299;BME280;37382;45.192;9.790;2023-02-02T08:01:15;101869.97;;;4.63;100.00
51299;BME280;37382;45.192;9.790;2023-02-02T08:03:43;101872.34;;;4.77;100.00
51299;BME280;37382;45.192;9.790;2023-02-02T08:06:17;101879.44;;;4.99;100.00
51299;BME280;37382;45.192;9.790;2023-02-02T08:08:45;101880.44;;;5.08;100.00
51299;BME280;37382;45.192;9.790;2023-02-02T08:11:15;101878.53;;;5.20;100.00
51299;BME280;37382;45.192;9.790;2023-02-02T08:13:47;101880.53;;;5.18;100.00
51299;BME280;37382;45.192;9.790;2023-02-02T08:16:16;101876.03;;;5.28;100.00
51299;BME280;37382;45.192;9.790;2023-02-02T08:18:45;101876.63;;;5.42;100.00
51299;BME280;37382;45.192;9.790;2023-02-02T08:21:13;101881.81;;;5.55;100.00
51299;BME280;37382;45.192;9.790;2023-02-02T08:23:42;101873.19;;;5.70;100.00
51299;BME280;37382;45.192;9.790;2023-02-02T08:26:17;101879.75;;;5.78;100.00
51299;BME280;37382;45.192;9.790;2023-02-02T08:28:46;101877.50;;;5.93;100.00
51299;BME280;37382;45.192;9.790;2023-02-02T08:31:20;101883.63;;;5.95;100.00
51299;BME280;37382;45.192;9.790;2023-02-02T08:33:49;101883.63;;;5.95;100.00
51299;BME280;37382;45.192;9.790;2023-02-02T08:36:18;101883.75;;;5.93;100.00
51299;BME280;37382;45.192;9.790;2023-02-02T08:38:47;101886.09;;;6.08;100.00
51299;BME280;37382;45.192;9.790;2023-02-02T08:41:17;101899.91;;;6.14;100.00
51299;BME280;37382;45.192;9.790;2023-02-02T08:43:46;101895.06;;;6.18;100.00
51299;BME280;37382;45.192;9.790;2023-02-02T08:46:15;101880.84;;;6.16;100.00
51299;BME280;37382;45.192;9.790;2023-02-02T08:48:44;101886.09;;;6.27;100.00
51299;BME280;37382;45.192;9.790;2023-02-02T08:51:13;101891.69;;;6.35;100.00
51299;BME280;37382;45.192;9.790;2023-02-02T08:53:42;101891.22;;;6.50;100.00
51299;BME280;37382;45.192;9.790;2023-02-02T08:56:12;101887.66;;;6.59;100.00
51299;BME280;37382;45.192;9.790;2023-02-02T08:58:54;101878.69;;;6.68;100.00
51299;BME280;37382;45.192;9.790;2023-02-02T09:04:00;101889.09;;;6.83;100.00
51299;BME280;37382;45.192;9.790;2023-02-02T09:06:34;101881.38;;;6.88;100.00
51299;BME280;37382;45.192;9.790;2023-02-02T09:09:04;101872.53;;;6.95;100.00
51299;BME280;37382;45.192;9.790;2023-02-02T09:11:33;101876.22;;;7.04;100.00
51299;BME280;37382;45.192;9.790;2023-02-02T09:14:00;101874.50;;;7.13;100.00
51299;BME280;37382;45.192;9.790;2023-02-02T09:16:29;101884.69;;;7.29;100.00
51299;BME280;37382;45.192;9.790;2023-02-02T09:18:57;101880.00;;;7.31;100.00
51299;BME280;37382;45.192;9.790;2023-02-02T09:21:25;101878.50;;;7.46;100.00
51299;BME280;37382;45.192;9.790;2023-02-02T09:23:53;101878.00;;;7.61;100.00
51299;BME280;37382;45.192;9.790;2023-02-02T09:26:26;101886.16;;;7.79;100.00
51299;BME280;37382;45.192;9.790;2023-02-02T09:29:02;101883.25;;;7.90;100.00
51299;BME280;37382;45.192;9.790;2023-02-02T09:31:32;101887.38;;;8.12;100.00
51299;BME280;37382;45.192;9.790;2023-02-02T09:34:06;101885.28;;;8.06;100.00
51299;BME280;37382;45.192;9.790;2023-02-02T09:36:35;101887.56;;;8.29;100.00
51299;BME280;37382;45.192;9.790;2023-02-02T09:39:04;101893.16;;;8.45;100.00
51299;BME280;37382;45.192;9.790;2023-02-02T09:44:48;101895.78;;;8.73;100.00
51299;BME280;37382;45.192;9.790;2023-02-02T09:52:50;101887.00;;;9.32;100.00
51299;BME280;37382;45.192;9.790;2023-02-02T09:58:10;101887.38;;;9.37;100.00
51299;BME280;37382;45.192;9.790;2023-02-02T10:01:07;101905.66;;;9.26;100.00
51299;BME280;37382;45.192;9.790;2023-02-02T10:03:41;101899.56;;;9.33;100.00
51299;BME280;37382;45.192;9.790;2023-02-02T10:06:28;101907.28;;;9.46;100.00
51299;BME280;37382;45.192;9.790;2023-02-02T10:11:36;101909.09;;;9.37;100.00
51299;BME280;37382;45.192;9.790;2023-02-02T10:14:21;101912.63;;;9.64;100.00
51299;BME280;37382;45.192;9.790;2023-02-02T10:16:53;101909.91;;;9.64;100.00
51299;BME280;37382;45.192;9.790;2023-02-02T10:19:23;101913.69;;;9.71;100.00
51299;BME280;37382;45.192;9.790;2023-02-02T10:22:04;101910.44;;;9.67;100.00
51299;BME280;37382;45.192;9.790;2023-02-02T10:24:37;101898.66;;;9.93;100.00
51299;BME280;37382;45.192;9.790;2023-02-02T10:27:10;101895.63;;;9.96;100.00
51299;BME280;37382;45.192;9.790;2023-02-02T10:29:52;101902.22;;;10.02;100.00
51299;BME280;37382;45.192;9.790;2023-02-02T10:32:30;101904.00;;;10.19;100.00
51299;BME280;37382;45.192;9.790;2023-02-02T10:38:02;101896.06;;;10.50;100.00
51299;BME280;37382;45.192;9.790;2023-02-02T10:40:43;101891.63;;;10.33;100.00
51299;BME280;37382;45.192;9.790;2023-02-02T10:43:43;101885.69;;;10.46;100.00
51299;BME280;37382;45.192;9.790;2023-02-02T10:51:33;101884.53;;;10.57;100.00
51299;BME280;37382;45.192;9.790;2023-02-02T10:54:19;101882.81;;;10.56;100.00
51299;BME280;37382;45.192;9.790;2023-02-02T10:56:50;101865.31;;;10.66;100.00
51299;BME280;37382;45.192;9.790;2023-02-02T10:59:35;101871.06;;;10.72;100.00
51299;BME280;37382;45.192;9.790;2023-02-02T11:02:10;101866.31;;;10.82;100.00
51299;BME280;37382;45.192;9.790;2023-02-02T11:04:47;101873.78;;;10.96;100.00
51299;BME280;37382;45.192;9.790;2023-02-02T11:07:35;101870.53;;;10.93;100.00
51299;BME280;37382;45.192;9.790;2023-02-02T11:10:02;101864.34;;;11.24;100.00
51299;BME280;37382;45.192;9.790;2023-02-02T11:12:33;101856.81;;;11.34;100.00
51299;BME280;37382;45.192;9.790;2023-02-02T11:15:07;101863.75;;;11.53;100.00
51299;BME280;37382;45.192;9.790;2023-02-02T11:17:38;101857.66;;;11.43;100.00
51299;BME280;37382;45.192;9.790;2023-02-02T11:20:32;101839.41;;;11.51;100.00
51299;BME280;37382;45.192;9.790;2023-02-02T11:23:02;101841.53;;;11.72;100.00
51299;BME280;37382;45.192;9.790;2023-02-02T11:25:34;101842.50;;;11.80;100.00
51299;BME280;37382;45.192;9.790;2023-02-02T11:28:11;101833.59;;;11.86;100.00
51299;BME280;37382;45.192;9.790;2023-02-02T11:30:46;101815.34;;;11.95;100.00
51299;BME280;37382;45.192;9.790;2023-02-02T11:33:28;101830.31;;;12.22;100.00
51299;BME280;37382;45.192;9.790;2023-02-02T11:36:03;101817.78;;;12.13;100.00
51299;BME280;37382;45.192;9.790;2023-02-02T11:38:31;101823.97;;;12.30;100.00
51299;BME280;37382;45.192;9.790;2023-02-02T11:41:03;101816.75;;;12.14;100.00
51299;BME280;37382;45.192;9.790;2023-02-02T11:44:00;101802.06;;;12.38;100.00
51299;BME280;37382;45.192;9.790;2023-02-02T11:46:36;101800.06;;;12.55;100.00
51299;BME280;37382;45.192;9.790;2023-02-02T11:49:06;101796.63;;;12.53;100.00
51299;BME280;37382;45.192;9.790;2023-02-02T11:51:41;101799.25;;;12.84;100.00
51299;BME280;37382;45.192;9.790;2023-02-02T11:54:21;101792.53;;;12.72;100.00
51299;BME280;37382;45.192;9.790;2023-02-02T11:56:53;101780.69;;;12.79;100.00
51299;BME280;37382;45.192;9.790;2023-02-02T11:59:37;101772.13;;;12.82;100.00
51299;BME280;37382;45.192;9.790;2023-02-02T12:04:39;101778.63;;;12.96;100.00
51299;BME280;37382;45.192;9.790;2023-02-02T12:07:31;101780.97;;;12.85;100.00
51299;BME280;37382;45.192;9.790;2023-02-02T12:10:01;101760.16;;;12.98;100.00
51299;BME280;37382;45.192;9.790;2023-02-02T12:15:21;101749.41;;;13.12;100.00
51299;BME280;37382;45.192;9.790;2023-02-02T12:18:34;101744.41;;;13.15;100.00
51299;BME280;37382;45.192;9.790;2023-02-02T12:21:16;101737.25;;;13.14;93.85
51299;BME280;37382;45.192;9.790;2023-02-02T12:26:29;101749.78;;;13.09;93.23
51299;BME280;37382;45.192;9.790;2023-02-02T12:51:40;101713.69;;;13.43;83.87
51299;BME280;37382;45.192;9.790;2023-02-02T13:00:23;101719.66;;;13.53;80.29
51299;BME280;37382;45.192;9.790;2023-02-02T13:03:33;101710.38;;;13.48;80.35
51299;BME280;37382;45.192;9.790;2023-02-02T13:09:00;101714.06;;;13.40;81.79
51299;BME280;37382;45.192;9.790;2023-02-02T13:14:14;101720.81;;;13.44;80.75
51299;BME280;37382;45.192;9.790;2023-02-02T13:16:46;101714.31;;;13.45;80.14
51299;BME280;37382;45.192;9.790;2023-02-02T13:19:35;101715.91;;;13.55;79.96
51299;BME280;37382;45.192;9.790;2023-02-02T13:22:07;101713.16;;;13.55;77.71
51299;BME280;37382;45.192;9.790;2023-02-02T13:24:41;101716.81;;;13.62;76.35
51299;BME280;37382;45.192;9.790;2023-02-02T13:27:13;101725.03;;;13.83;78.97
51299;BME280;37382;45.192;9.790;2023-02-02T13:30:04;101728.28;;;13.72;76.14
51299;BME280;37382;45.192;9.790;2023-02-02T13:32:40;101725.22;;;13.60;77.26
51299;BME280;37382;45.192;9.790;2023-02-02T13:35:16;101720.00;;;13.65;75.60
51299;BME280;37382;45.192;9.790;2023-02-02T13:41:06;101711.69;;;13.74;76.36
51299;BME280;37382;45.192;9.790;2023-02-02T13:44:07;101711.09;;;13.78;75.88
51299;BME280;37382;45.192;9.790;2023-02-02T13:46:51;101712.88;;;13.86;74.41
51299;BME280;37382;45.192;9.790;2023-02-02T13:49:30;101709.47;;;13.84;74.39
51299;BME280;37382;45.192;9.790;2023-02-02T13:52:20;101724.97;;;13.77;75.51
51299;BME280;37382;45.192;9.790;2023-02-02T13:58:43;101706.88;;;13.76;78.85
51299;BME280;37382;45.192;9.790;2023-02-02T14:00:52;101690.50;;;13.82;78.58
51299;BME280;37382;45.192;9.790;2023-02-02T14:03:33;101702.44;;;13.75;72.62
51299;BME280;37382;45.192;9.790;2023-02-02T14:06:16;101687.34;;;13.79;72.58
51299;BME280;37382;45.192;9.790;2023-02-02T14:11:30;101679.91;;;13.73;73.21
51299;BME280;37382;45.192;9.790;2023-02-02T14:14:07;101685.00;;;13.76;76.77
51299;BME280;37382;45.192;9.790;2023-02-02T14:16:54;101684.19;;;13.82;78.76
51299;BME280;37382;45.192;9.790;2023-02-02T14:38:16;101691.94;;;13.20;79.79
51299;BME280;37382;45.192;9.790;2023-02-02T14:43:45;101676.84;;;13.24;79.73
51299;BME280;37382;45.192;9.790;2023-02-02T14:46:32;101667.91;;;13.15;81.37
51299;BME280;37382;45.192;9.790;2023-02-02T14:51:30;101674.44;;;13.14;82.14
51299;BME280;37382;45.192;9.790;2023-02-02T14:54:02;101683.38;;;13.08;82.62
51299;BME280;37382;45.192;9.790;2023-02-02T14:59:05;101694.31;;;13.08;84.20
51299;BME280;37382;45.192;9.790;2023-02-02T15:01:36;101687.78;;;13.09;84.40
51299;BME280;37382;45.192;9.790;2023-02-02T15:06:49;101706.38;;;12.99;85.72
51299;BME280;37382;45.192;9.790;2023-02-02T15:19:44;101697.63;;;12.89;88.47
51299;BME280;37382;45.192;9.790;2023-02-02T15:24:44;101694.63;;;12.84;91.17
51299;BME280;37382;45.192;9.790;2023-02-02T15:27:16;101705.25;;;12.78;91.75
51299;BME280;37382;45.192;9.790;2023-02-02T15:29:49;101710.16;;;12.68;92.79
51299;BME280;37382;45.192;9.790;2023-02-02T15:32:23;101716.16;;;12.63;92.62
51299;BME280;37382;45.192;9.790;2023-02-02T15:34:53;101724.09;;;12.58;93.76
51299;BME280;37382;45.192;9.790;2023-02-02T15:37:29;101722.75;;;12.54;92.40
51299;BME280;37382;45.192;9.790;2023-02-02T15:40:01;101727.38;;;12.54;92.11
51299;BME280;37382;45.192;9.790;2023-02-02T15:42:38;101729.28;;;12.53;92.89
51299;BME280;37382;45.192;9.790;2023-02-02T15:47:58;101724.34;;;12.34;92.76
51299;BME280;37382;45.192;9.790;2023-02-02T15:50:26;101729.81;;;12.34;91.59
51299;BME280;37382;45.192;9.790;2023-02-02T15:52:54;101735.66;;;12.45;91.00
51299;BME280;37382;45.192;9.790;2023-02-02T15:55:29;101737.13;;;12.33;91.75
51299;BME280;37382;45.192;9.790;2023-02-02T15:57:58;101740.13;;;12.23;92.99
51299;BME280;37382;45.192;9.790;2023-02-02T16:00:29;101736.13;;;12.11;93.90
51299;BME280;37382;45.192;9.790;2023-02-02T16:08:06;101751.25;;;11.90;91.36
51299;BME280;37382;45.192;9.790;2023-02-02T16:10:35;101755.63;;;11.77;91.94
51299;BME280;37382;45.192;9.790;2023-02-02T16:13:02;101756.56;;;11.61;93.58
51299;BME280;37382;45.192;9.790;2023-02-02T16:15:30;101752.16;;;11.60;94.36
51299;BME280;37382;45.192;9.790;2023-02-02T16:18:00;101756.56;;;11.29;96.93
51299;BME280;37382;45.192;9.790;2023-02-02T16:20:33;101754.47;;;11.39;94.57
51299;BME280;37382;45.192;9.790;2023-02-02T16:23:04;101761.72;;;11.24;95.10
51299;BME280;37382;45.192;9.790;2023-02-02T16:25:44;101759.69;;;11.18;95.12
51299;BME280;37382;45.192;9.790;2023-02-02T16:28:16;101755.44;;;11.15;95.28
51299;BME280;37382;45.192;9.790;2023-02-02T16:30:44;101756.72;;;10.96;96.91
51299;BME280;37382;45.192;9.790;2023-02-02T16:36:25;101780.03;;;10.82;98.96
51299;BME280;37382;45.192;9.790;2023-02-02T16:38:54;101794.03;;;10.71;100.00
51299;BME280;37382;45.192;9.790;2023-02-02T16:41:31;101793.84;;;10.73;98.85
51299;BME280;37382;45.192;9.790;2023-02-02T16:44:34;101783.97;;;10.72;98.23
51299;BME280;37382;45.192;9.790;2023-02-02T16:47:47;101794.41;;;10.60;99.31
51299;BME280;37382;45.192;9.790;2023-02-02T16:52:49;101797.63;;;10.47;99.77
51299;BME280;37382;45.192;9.790;2023-02-02T16:55:18;101796.59;;;10.40;99.62
51299;BME280;37382;45.192;9.790;2023-02-02T16:57:48;101798.81;;;10.36;100.00
51299;BME280;37382;45.192;9.790;2023-02-02T17:00:21;101803.72;;;10.32;99.81
51299;BME280;37382;45.192;9.790;2023-02-02T17:02:53;101797.94;;;10.19;100.00
51299;BME280;37382;45.192;9.790;2023-02-02T17:05:29;101806.78;;;10.13;99.74
51299;BME280;37382;45.192;9.790;2023-02-02T17:08:03;101811.16;;;10.14;98.18
51299;BME280;37382;45.192;9.790;2023-02-02T17:10:39;101805.44;;;10.17;95.94
51299;BME280;37382;45.192;9.790;2023-02-02T17:13:44;101808.97;;;10.26;92.70
51299;BME280;37382;45.192;9.790;2023-02-02T17:16:15;101815.13;;;10.36;89.75
51299;BME280;37382;45.192;9.790;2023-02-02T17:18:43;101815.31;;;10.35;88.36
51299;BME280;37382;45.192;9.790;2023-02-02T17:21:18;101818.50;;;10.22;88.00
51299;BME280;37382;45.192;9.790;2023-02-02T17:23:46;101811.03;;;10.24;86.29
51299;BME280;37382;45.192;9.790;2023-02-02T17:26:17;101819.53;;;10.21;85.32
51299;BME280;37382;45.192;9.790;2023-02-02T17:28:44;101819.53;;;10.21;84.68
51299;BME280;37382;45.192;9.790;2023-02-02T17:31:14;101822.91;;;10.23;84.17
51299;BME280;37382;45.192;9.790;2023-02-02T17:33:42;101816.47;;;10.32;82.04
51299;BME280;37382;45.192;9.790;2023-02-02T17:36:11;101818.00;;;10.26;81.62
51299;BME280;37382;45.192;9.790;2023-02-02T17:38:39;101829.03;;;10.17;82.61
51299;BME280;37382;45.192;9.790;2023-02-02T17:41:09;101836.19;;;10.18;82.47
51299;BME280;37382;45.192;9.790;2023-02-02T17:43:40;101839.41;;;10.21;82.43
51299;BME280;37382;45.192;9.790;2023-02-02T17:46:10;101844.47;;;10.08;83.48
51299;BME280;37382;45.192;9.790;2023-02-02T17:48:39;101851.78;;;10.15;83.31
51299;BME280;37382;45.192;9.790;2023-02-02T17:51:13;101855.84;;;10.03;84.67
51299;BME280;37382;45.192;9.790;2023-02-02T17:53:42;101850.41;;;9.95;85.58
51299;BME280;37382;45.192;9.790;2023-02-02T17:56:10;101853.44;;;9.84;86.63
51299;BME280;37382;45.192;9.790;2023-02-02T17:58:38;101865.50;;;9.89;87.58
51299;BME280;37382;45.192;9.790;2023-02-02T18:01:06;101862.59;;;9.83;87.84
51299;BME280;37382;45.192;9.790;2023-02-02T18:03:38;101862.44;;;9.92;88.18
51299;BME280;37382;45.192;9.790;2023-02-02T18:06:06;101854.63;;;9.81;88.98
51299;BME280;37382;45.192;9.790;2023-02-02T18:08:33;101859.22;;;9.81;89.89
51299;BME280;37382;45.192;9.790;2023-02-02T18:11:01;101869.69;;;9.67;90.98
51299;BME280;37382;45.192;9.790;2023-02-02T18:13:29;101867.47;;;9.63;92.24
51299;BME280;37382;45.192;9.790;2023-02-02T18:15:56;101871.88;;;9.64;93.54
51299;BME280;37382;45.192;9.790;2023-02-02T18:18:25;101872.41;;;9.67;94.48
51299;BME280;37382;45.192;9.790;2023-02-02T18:20:55;101873.59;;;9.65;96.13
51299;BME280;37382;45.192;9.790;2023-02-02T18:23:25;101875.19;;;9.41;98.81
51299;BME280;37382;45.192;9.790;2023-02-02T18:25:52;101871.72;;;9.31;100.00
51299;BME280;37382;45.192;9.790;2023-02-02T18:28:20;101871.41;;;9.34;100.00
51299;BME280;37382;45.192;9.790;2023-02-02T18:30:48;101871.72;;;9.31;100.00
51299;BME280;37382;45.192;9.790;2023-02-02T18:33:16;101865.06;;;9.25;100.00
51299;BME280;37382;45.192;9.790;2023-02-02T18:35:46;101865.06;;;9.25;100.00
51299;BME280;37382;45.192;9.790;2023-02-02T18:38:13;101863.94;;;9.36;100.00
51299;BME280;37382;45.192;9.790;2023-02-02T18:40:41;101866.16;;;9.32;100.00
51299;BME280;37382;45.192;9.790;2023-02-02T18:43:09;101867.16;;;9.05;100.00
51299;BME280;37382;45.192;9.790;2023-02-02T18:45:36;101860.78;;;9.14;100.00
51299;BME280;37382;45.192;9.790;2023-02-02T18:48:04;101867.06;;;9.15;100.00
51299;BME280;37382;45.192;9.790;2023-02-02T18:50:31;101875.19;;;9.15;100.00
51299;BME280;37382;45.192;9.790;2023-02-02T18:52:59;101867.13;;;9.23;100.00
51299;BME280;37382;45.192;9.790;2023-02-02T18:55:26;101881.97;;;9.11;100.00
51299;BME280;37382;45.192;9.790;2023-02-02T18:57:54;101893.91;;;9.00;100.00
51299;BME280;37382;45.192;9.790;2023-02-02T19:00:22;101878.03;;;9.05;100.00
51299;BME280;37382;45.192;9.790;2023-02-02T19:02:49;101881.88;;;8.94;100.00
51299;BME280;37382;45.192;9.790;2023-02-02T19:05:17;101892.88;;;8.93;100.00
51299;BME280;37382;45.192;9.790;2023-02-02T19:08:03;101891.97;;;9.10;100.00
51299;BME280;37382;45.192;9.790;2023-02-02T19:10:32;101888.34;;;9.01;100.00
51299;BME280;37382;45.192;9.790;2023-02-02T19:15:37;101895.44;;;8.94;100.00
51299;BME280;37382;45.192;9.790;2023-02-02T19:18:31;101897.78;;;9.15;100.00
51299;BME280;37382;45.192;9.790;2023-02-02T19:20:58;101900.84;;;9.20;100.00
51299;BME280;37382;45.192;9.790;2023-02-02T19:23:28;101893.59;;;9.03;100.00
51299;BME280;37382;45.192;9.790;2023-02-02T19:25:58;101896.63;;;9.00;100.00
51299;BME280;37382;45.192;9.790;2023-02-02T19:28:28;101899.66;;;8.97;100.00
51299;BME280;37382;45.192;9.790;2023-02-02T19:30:59;101899.94;;;8.85;100.00
51299;BME280;37382;45.192;9.790;2023-02-02T19:36:00;101896.78;;;8.72;100.00
51299;BME280;37382;45.192;9.790;2023-02-02T19:38:28;101893.38;;;8.70;100.00
51299;BME280;37382;45.192;9.790;2023-02-02T19:40:58;101897.69;;;8.81;100.00
51299;BME280;37382;45.192;9.790;2023-02-02T19:43:28;101899.50;;;8.72;100.00
51299;BME280;37382;45.192;9.790;2023-02-02T19:45:58;101914.59;;;8.75;100.00
51299;BME280;37382;45.192;9.790;2023-02-02T19:48:32;101910.16;;;8.92;100.00
51299;BME280;37382;45.192;9.790;2023-02-02T19:51:22;101919.81;;;8.68;100.00
51299;BME280;37382;45.192;9.790;2023-02-02T19:53:57;101930.88;;;8.57;100.00
51299;BME280;37382;45.192;9.790;2023-02-02T19:56:27;101948.25;;;8.46;100.00
51299;BME280;37382;45.192;9.790;2023-02-02T19:58:55;101937.09;;;8.49;100.00
51299;BME280;37382;45.192;9.790;2023-02-02T20:01:23;101935.97;;;8.42;100.00
51299;BME280;37382;45.192;9.790;2023-02-02T20:03:53;101945.38;;;8.47;100.00
51299;BME280;37382;45.192;9.790;2023-02-02T20:06:26;101935.19;;;8.31;100.00
51299;BME280;37382;45.192;9.790;2023-02-02T20:08:59;101939.44;;;8.34;100.00
51299;BME280;37382;45.192;9.790;2023-02-02T20:11:39;101948.69;;;8.41;100.00
51299;BME280;37382;45.192;9.790;2023-02-02T20:16:48;101949.59;;;8.32;100.00
51299;BME280;37382;45.192;9.790;2023-02-02T20:19:26;101954.41;;;8.38;100.00
51299;BME280;37382;45.192;9.790;2023-02-02T20:21:55;101961.84;;;8.36;100.00
51299;BME280;37382;45.192;9.790;2023-02-02T20:24:36;101956.03;;;8.31;100.00
51299;BME280;37382;45.192;9.790;2023-02-02T20:27:12;101952.06;;;8.25;100.00
51299;BME280;37382;45.192;9.790;2023-02-02T20:29:44;101956.75;;;8.33;100.00
51299;BME280;37382;45.192;9.790;2023-02-02T20:32:24;101956.31;;;8.28;100.00
51299;BME280;37382;45.192;9.790;2023-02-02T20:34:54;101957.94;;;8.20;100.00
51299;BME280;37382;45.192;9.790;2023-02-02T20:37:27;101954.00;;;8.15;100.00
51299;BME280;37382;45.192;9.790;2023-02-02T20:40:05;101950.19;;;8.08;100.00
51299;BME280;37382;45.192;9.790;2023-02-02T20:42:33;101961.97;;;8.16;100.00